sensor_id;sensor_type;location;lat;lon;timestamp;pressure;altitude;pressure_sealevel;temperature;humidity
77299;BME280;66361;52.034;20.656;2023-07-31T05:16:05;99358.75;;;18.43;86.51
77299;BME280;66361;52.034;20.656;2023-07-31T05:20:09;99364.41;;;18.48;84.71
77299;BME280;66361;52.034;20.656;2023-07-31T05:24:12;99372.44;;;18.39;84.60
77299;BME280;66361;52.034;20.656;2023-07-31T05:28:15;99380.47;;;18.39;84.53
77299;BME280;66361;52.034;20.656;2023-07-31T05:32:20;99374.91;;;18.25;85.78
77299;BME280;66361;52.034;20.656;2023-07-31T05:36:24;99384.22;;;18.21;85.77
77299;BME280;66361;52.034;20.656;2023-07-31T05:40:27;99384.06;;;18.14;86.42
77299;BME280;66361;52.034;20.656;2023-07-31T05:44:30;99398.56;;;18.04;89.50
77299;BME280;66361;52.034;20.656;2023-07-31T05:48:34;99396.66;;;17.88;89.61
77299;BME280;66361;52.034;20.656;2023-07-31T05:52:37;99398.34;;;17.89;91.36
77299;BME280;66361;52.034;20.656;2023-07-31T05:56:40;99403.97;;;17.78;91.76
77299;BME280;66361;52.034;20.656;2023-07-31T06:00:43;99404.84;;;17.86;92.24
77299;BME280;66361;52.034;20.656;2023-07-31T06:04:47;99402.34;;;17.93;93.54
77299;BME280;66361;52.034;20.656;2023-07-31T06:08:50;99396.69;;;17.96;92.44
77299;BME280;66361;52.034;20.656;2023-07-31T06:12:54;99403.25;;;18.18;92.25
77299;BME280;66361;52.034;20.656;2023-07-31T06:17:00;99405.13;;;18.33;89.32
77299;BME280;66361;52.034;20.656;2023-07-31T06:21:05;99410.06;;;18.62;88.71
77299;BME280;66361;52.034;20.656;2023-07-31T06:25:08;99415.91;;;18.66;86.69
77299;BME280;66361;52.034;20.656;2023-07-31T06:29:16;99409.09;;;18.88;85.96
77299;BME280;66361;52.034;20.656;2023-07-31T06:33:18;99409.25;;;19.10;85.63
77299;BME280;66361;52.034;20.656;2023-07-31T06:37:23;99418.38;;;19.64;82.46
77299;BME280;66361;52.034;20.656;2023-07-31T06:41:26;99417.47;;;20.58;76.56
77299;BME280;66361;52.034;20.656;2023-07-31T06:45:30;99416.66;;;21.17;73.89
77299;BME280;66361;52.034;20.656;2023-07-31T06:49:32;99416.47;;;22.15;71.44
77299;BME280;66361;52.034;20.656;2023-07-31T06:53:37;99409.50;;;23.20;65.85
77299;BME280;66361;52.034;20.656;2023-07-31T06:57:40;99421.44;;;23.60;61.49
77299;BME280;66361;52.034;20.656;2023-07-31T07:01:43;99423.94;;;23.96;61.42
77299;BME280;66361;52.034;20.656;2023-07-31T07:05:47;99425.97;;;25.74;54.84
77299;BME280;66361;52.034;20.656;2023-07-31T07:09:52;99421.44;;;27.76;52.58
77299;BME280;66361;52.034;20.656;2023-07-31T07:13:56;99422.91;;;28.51;47.56
77299;BME280;66361;52.034;20.656;2023-07-31T07:17:58;99427.50;;;28.80;48.58
77299;BME280;66361;52.034;20.656;2023-07-31T07:22:01;99423.38;;;29.66;42.81
77299;BME280;66361;52.034;20.656;2023-07-31T07:26:06;99417.47;;;29.34;42.14
77299;BME280;66361;52.034;20.656;2023-07-31T07:30:10;99418.44;;;28.38;46.81
77299;BME280;66361;52.034;20.656;2023-07-31T07:34:13;99425.78;;;28.20;46.56
77299;BME280;66361;52.034;20.656;2023-07-31T07:38:16;99412.88;;;28.52;44.78
77299;BME280;66361;52.034;20.656;2023-07-31T07:42:22;99423.56;;;27.92;45.30
77299;BME280;66361;52.034;20.656;2023-07-31T07:46:25;99420.94;;;25.78;48.29
77299;BME280;66361;52.034;20.656;2023-07-31T07:50:31;99420.72;;;26.57;51.68
77299;BME280;66361;52.034;20.656;2023-07-31T07:54:37;99412.13;;;26.91;47.23
77299;BME280;66361;52.034;20.656;2023-07-31T07:58:43;99417.38;;;26.48;49.16
77299;BME280;66361;52.034;20.656;2023-07-31T08:02:46;99413.63;;;27.86;46.89
77299;BME280;66361;52.034;20.656;2023-07-31T08:06:50;99407.06;;;28.78;40.95
77299;BME280;66361;52.034;20.656;2023-07-31T08:10:53;99410.75;;;29.60;41.32
77299;BME280;66361;52.034;20.656;2023-07-31T08:14:57;99414.84;;;30.60;38.64
77299;BME280;66361;52.034;20.656;2023-07-31T08:19:01;99419.63;;;31.43;36.28
77299;BME280;66361;52.034;20.656;2023-07-31T08:23:05;99423.69;;;32.39;33.92
77299;BME280;66361;52.034;20.656;2023-07-31T08:27:08;99420.06;;;32.12;34.43
77299;BME280;66361;52.034;20.656;2023-07-31T08:31:14;99424.31;;;32.03;34.35
77299;BME280;66361;52.034;20.656;2023-07-31T08:35:17;99411.94;;;32.60;33.52
77299;BME280;66361;52.034;20.656;2023-07-31T08:39:20;99405.25;;;33.32;31.72
77299;BME280;66361;52.034;20.656;2023-07-31T08:43:26;99413.44;;;32.73;33.64
77299;BME280;66361;52.034;20.656;2023-07-31T08:47:31;99417.97;;;32.41;32.76
77299;BME280;66361;52.034;20.656;2023-07-31T08:51:35;99417.25;;;33.63;32.81
77299;BME280;66361;52.034;20.656;2023-07-31T08:55:39;99425.09;;;33.96;28.44
77299;BME280;66361;52.034;20.656;2023-07-31T08:59:43;99422.97;;;32.27;31.83
77299;BME280;66361;52.034;20.656;2023-07-31T09:03:49;99429.03;;;30.62;35.68
77299;BME280;66361;52.034;20.656;2023-07-31T09:07:55;99428.16;;;29.06;39.12
77299;BME280;66361;52.034;20.656;2023-07-31T09:11:59;99423.50;;;28.35;39.73
77299;BME280;66361;52.034;20.656;2023-07-31T09:16:02;99423.19;;;28.43;40.42
77299;BME280;66361;52.034;20.656;2023-07-31T09:20:18;99421.97;;;28.39;42.75
77299;BME280;66361;52.034;20.656;2023-07-31T09:24:25;99416.66;;;29.33;40.25
77299;BME280;66361;52.034;20.656;2023-07-31T09:28:31;99406.41;;;28.16;43.38
77299;BME280;66361;52.034;20.656;2023-07-31T09:32:34;99406.25;;;29.30;38.46
77299;BME280;66361;52.034;20.656;2023-07-31T09:36:45;99408.41;;;30.38;35.83
77299;BME280;66361;52.034;20.656;2023-07-31T09:40:48;99402.22;;;31.49;33.85
77299;BME280;66361;52.034;20.656;2023-07-31T09:44:54;99408.22;;;30.16;35.25
77299;BME280;66361;52.034;20.656;2023-07-31T09:49:07;99398.84;;;28.96;38.32
77299;BME280;66361;52.034;20.656;2023-07-31T09:53:15;99411.81;;;28.34;40.49
77299;BME280;66361;52.034;20.656;2023-07-31T09:57:21;99406.66;;;29.04;39.91
77299;BME280;66361;52.034;20.656;2023-07-31T10:01:25;99394.34;;;29.02;37.83
77299;BME280;66361;52.034;20.656;2023-07-31T10:05:31;99400.44;;;29.62;37.64
77299;BME280;66361;52.034;20.656;2023-07-31T10:09:38;99401.53;;;29.72;36.96
77299;BME280;66361;52.034;20.656;2023-07-31T10:13:42;99377.88;;;28.73;37.94
77299;BME280;66361;52.034;20.656;2023-07-31T10:17:47;99382.59;;;29.66;36.85
77299;BME280;66361;52.034;20.656;2023-07-31T10:21:51;99389.72;;;30.18;37.61
77299;BME280;66361;52.034;20.656;2023-07-31T10:25:57;99386.38;;;29.65;34.76
77299;BME280;66361;52.034;20.656;2023-07-31T10:30:04;99380.13;;;28.76;35.75
77299;BME280;66361;52.034;20.656;2023-07-31T10:34:09;99393.44;;;28.66;38.24
77299;BME280;66361;52.034;20.656;2023-07-31T10:38:12;99390.31;;;29.46;39.22
77299;BME280;66361;52.034;20.656;2023-07-31T10:42:17;99376.44;;;29.24;36.18
77299;BME280;66361;52.034;20.656;2023-07-31T10:46:20;99389.31;;;29.17;37.44
77299;BME280;66361;52.034;20.656;2023-07-31T10:50:25;99375.63;;;28.70;38.49
77299;BME280;66361;52.034;20.656;2023-07-31T10:54:27;99384.00;;;28.21;35.23
77299;BME280;66361;52.034;20.656;2023-07-31T10:58:33;99379.94;;;27.75;35.83
77299;BME280;66361;52.034;20.656;2023-07-31T11:02:36;99387.94;;;27.88;37.50
77299;BME280;66361;52.034;20.656;2023-07-31T11:06:39;99372.66;;;28.72;36.85
77299;BME280;66361;52.034;20.656;2023-07-31T11:10:44;99383.25;;;29.03;35.63
77299;BME280;66361;52.034;20.656;2023-07-31T11:14:55;99380.28;;;28.93;36.51
77299;BME280;66361;52.034;20.656;2023-07-31T11:18:58;99380.97;;;28.47;36.44
77299;BME280;66361;52.034;20.656;2023-07-31T11:23:02;99380.97;;;27.56;36.16
77299;BME280;66361;52.034;20.656;2023-07-31T11:27:07;99377.59;;;27.61;35.70
77299;BME280;66361;52.034;20.656;2023-07-31T11:31:12;99383.94;;;26.74;39.55
77299;BME280;66361;52.034;20.656;2023-07-31T11:35:15;99379.31;;;26.81;41.45
77299;BME280;66361;52.034;20.656;2023-07-31T11:39:18;99388.09;;;26.32;39.77
77299;BME280;66361;52.034;20.656;2023-07-31T11:43:22;99390.41;;;26.28;40.31
77299;BME280;66361;52.034;20.656;2023-07-31T11:47:27;99383.34;;;26.27;39.23
77299;BME280;66361;52.034;20.656;2023-07-31T11:51:31;99376.81;;;25.97;41.50
77299;BME280;66361;52.034;20.656;2023-07-31T11:55:37;99376.03;;;26.34;39.10
77299;BME280;66361;52.034;20.656;2023-07-31T11:59:41;99365.13;;;26.54;39.78
77299;BME280;66361;52.034;20.656;2023-07-31T12:03:47;99372.16;;;26.62;39.54
77299;BME280;66361;52.034;20.656;2023-07-31T12:07:54;99369.25;;;26.88;39.60
77299;BME280;66361;52.034;20.656;2023-07-31T12:11:57;99363.63;;;26.89;39.79
77299;BME280;66361;52.034;20.656;2023-07-31T12:16:02;99359.84;;;26.66;38.61
77299;BME280;66361;52.034;20.656;2023-07-31T12:20:08;99361.81;;;26.52;41.09
77299;BME280;66361;52.034;20.656;2023-07-31T12:24:12;99352.22;;;26.12;41.78
77299;BME280;66361;52.034;20.656;2023-07-31T12:28:15;99348.28;;;26.08;42.13
77299;BME280;66361;52.034;20.656;2023-07-31T12:32:22;99345.50;;;25.70;41.85
77299;BME280;66361;52.034;20.656;2023-07-31T12:36:31;99340.41;;;25.99;41.59
77299;BME280;66361;52.034;20.656;2023-07-31T12:40:38;99338.22;;;25.64;42.92
77299;BME280;66361;52.034;20.656;2023-07-31T12:44:41;99324.59;;;26.41;42.89
77299;BME280;66361;52.034;20.656;2023-07-31T12:48:44;99325.09;;;26.63;44.72
77299;BME280;66361;52.034;20.656;2023-07-31T12:52:49;99310.78;;;26.80;39.85
77299;BME280;66361;52.034;20.656;2023-07-31T12:56:51;99316.03;;;27.25;38.57
77299;BME280;66361;52.034;20.656;2023-07-31T13:00:56;99305.75;;;27.09;39.89
77299;BME280;66361;52.034;20.656;2023-07-31T13:05:00;99306.53;;;26.66;40.08
77299;BME280;66361;52.034;20.656;2023-07-31T13:09:06;99293.59;;;26.93;40.46
77299;BME280;66361;52.034;20.656;2023-07-31T13:13:11;99294.91;;;27.09;37.01
77299;BME280;66361;52.034;20.656;2023-07-31T13:17:18;99292.09;;;27.40;38.23
77299;BME280;66361;52.034;20.656;2023-07-31T13:21:21;99286.16;;;27.07;36.04
77299;BME280;66361;52.034;20.656;2023-07-31T13:25:26;99277.50;;;26.17;37.31
77299;BME280;66361;52.034;20.656;2023-07-31T13:29:29;99267.09;;;26.14;38.61
77299;BME280;66361;52.034;20.656;2023-07-31T13:33:52;99265.78;;;25.92;40.40
77299;BME280;66361;52.034;20.656;2023-07-31T13:37:55;99261.44;;;25.84;39.98
77299;BME280;66361;52.034;20.656;2023-07-31T13:42:00;99256.53;;;25.62;39.52
77299;BME280;66361;52.034;20.656;2023-07-31T13:46:03;99262.06;;;25.29;39.68
77299;BME280;66361;52.034;20.656;2023-07-31T13:50:08;99258.78;;;24.74;39.98
77299;BME280;66361;52.034;20.656;2023-07-31T13:54:12;99255.84;;;25.02;43.75
77299;BME280;66361;52.034;20.656;2023-07-31T13:58:18;99247.94;;;25.20;39.97
77299;BME280;66361;52.034;20.656;2023-07-31T14:02:21;99244.19;;;25.28;40.73
77299;BME280;66361;52.034;20.656;2023-07-31T14:06:24;99243.69;;;25.50;39.86
77299;BME280;66361;52.034;20.656;2023-07-31T14:10:28;99239.59;;;25.86;39.25
77299;BME280;66361;52.034;20.656;2023-07-31T14:14:32;99238.00;;;26.41;39.29
77299;BME280;66361;52.034;20.656;2023-07-31T14:18:36;99229.63;;;26.42;38.83
77299;BME280;66361;52.034;20.656;2023-07-31T14:22:40;99236.88;;;25.86;44.08
77299;BME280;66361;52.034;20.656;2023-07-31T14:26:42;99235.25;;;25.85;41.19
77299;BME280;66361;52.034;20.656;2023-07-31T14:30:47;99238.09;;;25.45;42.28
77299;BME280;66361;52.034;20.656;2023-07-31T14:34:50;99237.75;;;25.22;44.14
77299;BME280;66361;52.034;20.656;2023-07-31T14:38:53;99233.81;;;25.12;42.25
77299;BME280;66361;52.034;20.656;2023-07-31T14:42:56;99235.69;;;25.04;42.34
77299;BME280;66361;52.034;20.656;2023-07-31T14:47:01;99218.75;;;25.48;41.99
77299;BME280;66361;52.034;20.656;2023-07-31T14:51:04;99223.47;;;25.60;42.56
77299;BME280;66361;52.034;20.656;2023-07-31T14:55:08;99212.47;;;25.61;42.47
77299;BME280;66361;52.034;20.656;2023-07-31T14:59:11;99217.91;;;25.99;41.33
77299;BME280;66361;52.034;20.656;2023-07-31T15:03:16;99215.50;;;25.84;40.55
77299;BME280;66361;52.034;20.656;2023-07-31T15:07:19;99208.75;;;25.56;43.24
77299;BME280;66361;52.034;20.656;2023-07-31T15:11:25;99208.66;;;25.11;43.32
77299;BME280;66361;52.034;20.656;2023-07-31T15:15:29;99208.91;;;25.16;44.62
77299;BME280;66361;52.034;20.656;2023-07-31T15:19:33;99209.94;;;25.15;42.99
77299;BME280;66361;52.034;20.656;2023-07-31T15:23:38;99201.28;;;24.80;45.39
77299;BME280;66361;52.034;20.656;2023-07-31T15:27:41;99201.28;;;24.87;45.05
77299;BME280;66361;52.034;20.656;2023-07-31T15:31:44;99193.81;;;24.76;49.04
77299;BME280;66361;52.034;20.656;2023-07-31T15:35:49;99199.19;;;24.82;50.50
77299;BME280;66361;52.034;20.656;2023-07-31T15:39:52;99189.03;;;24.78;45.59
77299;BME280;66361;52.034;20.656;2023-07-31T15:43:55;99184.06;;;24.55;49.96
77299;BME280;66361;52.034;20.656;2023-07-31T15:47:59;99189.47;;;24.35;47.07
77299;BME280;66361;52.034;20.656;2023-07-31T15:52:04;99187.78;;;24.21;49.46
77299;BME280;66361;52.034;20.656;2023-07-31T15:56:09;99175.53;;;23.79;48.70
77299;BME280;66361;52.034;20.656;2023-07-31T16:00:13;99173.84;;;23.72;50.16
77299;BME280;66361;52.034;20.656;2023-07-31T16:04:16;99171.47;;;23.49;48.39
77299;BME280;66361;52.034;20.656;2023-07-31T16:08:21;99173.69;;;23.32;50.12
77299;BME280;66361;52.034;20.656;2023-07-31T16:12:24;99169.47;;;23.16;56.02
77299;BME280;66361;52.034;20.656;2023-07-31T16:16:27;99165.91;;;23.03;54.90
77299;BME280;66361;52.034;20.656;2023-07-31T16:20:30;99169.16;;;22.92;57.22
77299;BME280;66361;52.034;20.656;2023-07-31T16:24:37;99168.47;;;22.90;54.82
77299;BME280;66361;52.034;20.656;2023-07-31T16:28:40;99173.53;;;22.93;53.75
77299;BME280;66361;52.034;20.656;2023-07-31T16:32:46;99172.28;;;22.95;54.88
77299;BME280;66361;52.034;20.656;2023-07-31T16:36:51;99160.09;;;22.99;52.97
77299;BME280;66361;52.034;20.656;2023-07-31T16:40:57;99172.91;;;22.97;60.08
77299;BME280;66361;52.034;20.656;2023-07-31T16:45:00;99162.22;;;22.83;57.08
77299;BME280;66361;52.034;20.656;2023-07-31T16:49:04;99163.38;;;22.67;54.77
77299;BME280;66361;52.034;20.656;2023-07-31T16:53:07;99160.78;;;22.52;55.48
77299;BME280;66361;52.034;20.656;2023-07-31T16:57:13;99158.22;;;22.38;58.52
77299;BME280;66361;52.034;20.656;2023-07-31T17:01:16;99171.19;;;22.28;56.82
77299;BME280;66361;52.034;20.656;2023-07-31T17:05:19;99171.09;;;22.14;56.02
77299;BME280;66361;52.034;20.656;2023-07-31T17:09:23;99176.56;;;22.06;59.83
77299;BME280;66361;52.034;20.656;2023-07-31T17:13:28;99177.97;;;22.02;60.72
77299;BME280;66361;52.034;20.656;2023-07-31T17:17:31;99192.34;;;21.95;58.89
77299;BME280;66361;52.034;20.656;2023-07-31T17:21:35;99192.16;;;21.96;58.11
77299;BME280;66361;52.034;20.656;2023-07-31T17:25:39;99190.50;;;21.95;58.59
77299;BME280;66361;52.034;20.656;2023-07-31T17:29:43;99205.13;;;21.93;60.59
77299;BME280;66361;52.034;20.656;2023-07-31T17:33:47;99201.50;;;22.00;60.61
77299;BME280;66361;52.034;20.656;2023-07-31T17:37:50;99199.38;;;21.96;59.31
77299;BME280;66361;52.034;20.656;2023-07-31T17:41:53;99200.88;;;21.98;59.02
77299;BME280;66361;52.034;20.656;2023-07-31T17:46:01;99215.69;;;21.94;59.51
77299;BME280;66361;52.034;20.656;2023-07-31T17:50:05;99216.00;;;21.85;59.24
77299;BME280;66361;52.034;20.656;2023-07-31T17:54:12;99215.19;;;21.84;59.95
77299;BME280;66361;52.034;20.656;2023-07-31T17:58:15;99222.53;;;21.76;62.08
77299;BME280;66361;52.034;20.656;2023-07-31T18:02:20;99209.41;;;21.66;60.27
77299;BME280;66361;52.034;20.656;2023-07-31T18:06:23;99210.28;;;21.52;61.54
77299;BME280;66361;52.034;20.656;2023-07-31T18:10:26;99209.22;;;21.32;61.61
77299;BME280;66361;52.034;20.656;2023-07-31T18:14:29;99207.06;;;21.12;63.55
77299;BME280;66361;52.034;20.656;2023-07-31T18:18:37;99218.63;;;20.84;64.70
77299;BME280;66361;52.034;20.656;2023-07-31T18:22:40;99209.72;;;20.54;66.08
77299;BME280;66361;52.034;20.656;2023-07-31T18:26:43;99212.22;;;20.33;67.94
77299;BME280;66361;52.034;20.656;2023-07-31T18:30:46;99213.97;;;20.25;67.08
77299;BME280;66361;52.034;20.656;2023-07-31T18:34:51;99213.69;;;20.20;70.50
77299;BME280;66361;52.034;20.656;2023-07-31T18:38:57;99212.72;;;20.13;69.29
77299;BME280;66361;52.034;20.656;2023-07-31T18:43:00;99218.88;;;19.99;69.91
77299;BME280;66361;52.034;20.656;2023-07-31T18:47:04;99224.38;;;19.75;71.54
77299;BME280;66361;52.034;20.656;2023-07-31T18:51:08;99225.16;;;19.61;73.40
77299;BME280;66361;52.034;20.656;2023-07-31T18:55:12;99234.38;;;19.50;80.15
77299;BME280;66361;52.034;20.656;2023-07-31T18:59:15;99221.38;;;19.39;73.32
77299;BME280;66361;52.034;20.656;2023-07-31T19:03:18;99218.88;;;19.38;80.39
77299;BME280;66361;52.034;20.656;2023-07-31T19:07:23;99222.91;;;19.33;76.77
77299;BME280;66361;52.034;20.656;2023-07-31T19:11:26;99222.25;;;19.31;78.75
77299;BME280;66361;52.034;20.656;2023-07-31T19:15:34;99214.59;;;19.28;76.85
77299;BME280;66361;52.034;20.656;2023-07-31T19:19:37;99211.44;;;19.25;77.87
77299;BME280;66361;52.034;20.656;2023-07-31T19:23:43;99216.47;;;19.20;78.53
77299;BME280;66361;52.034;20.656;2023-07-31T19:27:46;99227.66;;;19.15;80.86
77299;BME280;66361;52.034;20.656;2023-07-31T19:31:55;99230.53;;;19.14;83.49
77299;BME280;66361;52.034;20.656;2023-07-31T19:35:59;99239.06;;;19.09;87.75
77299;BME280;66361;52.034;20.656;2023-07-31T19:40:05;99231.22;;;19.00;80.35
77299;BME280;66361;52.034;20.656;2023-07-31T19:44:09;99223.03;;;19.01;81.62
77299;BME280;66361;52.034;20.656;2023-07-31T19:48:12;99218.38;;;19.03;88.04
77299;BME280;66361;52.034;20.656;2023-07-31T19:52:16;99213.53;;;18.99;80.80
77299;BME280;66361;52.034;20.656;2023-07-31T19:56:20;99213.19;;;19.02;84.86
77299;BME280;66361;52.034;20.656;2023-07-31T20:00:23;99209.53;;;19.03;89.87
77299;BME280;66361;52.034;20.656;2023-07-31T20:04:26;99203.19;;;18.96;85.67
77299;BME280;66361;52.034;20.656;2023-07-31T20:08:30;99207.88;;;18.94;84.32
77299;BME280;66361;52.034;20.656;2023-07-31T20:12:35;99202.16;;;18.97;88.07
77299;BME280;66361;52.034;20.656;2023-07-31T20:16:38;99190.16;;;18.93;84.28
77299;BME280;66361;52.034;20.656;2023-07-31T20:20:43;99189.50;;;18.91;84.82
77299;BME280;66361;52.034;20.656;2023-07-31T20:24:47;99194.00;;;18.90;85.22
77299;BME280;66361;52.034;20.656;2023-07-31T20:28:52;99171.47;;;18.84;83.56
77299;BME280;66361;52.034;20.656;2023-07-31T20:32:55;99173.63;;;18.81;84.39
77299;BME280;66361;52.034;20.656;2023-07-31T20:36:58;99169.34;;;18.72;82.81
77299;BME280;66361;52.034;20.656;2023-07-31T20:41:02;99160.47;;;18.55;81.46
77299;BME280;66361;52.034;20.656;2023-07-31T20:45:07;99165.41;;;18.35;81.24
77299;BME280;66361;52.034;20.656;2023-07-31T20:49:11;99147.41;;;18.13;82.35
77299;BME280;66361;52.034;20.656;2023-07-31T20:53:14;99152.59;;;17.90;82.26
77299;BME280;66361;52.034;20.656;2023-07-31T20:57:18;99155.56;;;17.71;83.44
77299;BME280;66361;52.034;20.656;2023-07-31T21:01:23;99150.31;;;17.54;86.51
77299;BME280;66361;52.034;20.656;2023-07-31T21:05:27;99146.47;;;17.40;85.62
77299;BME280;66361;52.034;20.656;2023-07-31T21:09:30;99139.31;;;17.40;86.81
77299;BME280;66361;52.034;20.656;2023-07-31T21:13:33;99132.81;;;17.51;91.89
77299;BME280;66361;52.034;20.656;2023-07-31T21:17:38;99131.84;;;17.52;89.04
77299;BME280;66361;52.034;20.656;2023-07-31T21:21:41;99122.53;;;17.56;90.70
77299;BME280;66361;52.034;20.656;2023-07-31T21:25:44;99109.66;;;17.52;87.82
77299;BME280;66361;52.034;20.656;2023-07-31T21:29:47;99107.97;;;17.51;87.39
77299;BME280;66361;52.034;20.656;2023-07-31T21:33:52;99108.81;;;17.43;88.91
77299;BME280;66361;52.034;20.656;2023-07-31T21:37:55;99101.31;;;17.30;87.85
77299;BME280;66361;52.034;20.656;2023-07-31T21:41:58;99105.41;;;17.17;86.57
77299;BME280;66361;52.034;20.656;2023-07-31T21:46:02;99099.75;;;17.04;87.53
77299;BME280;66361;52.034;20.656;2023-07-31T21:50:07;99097.72;;;16.89;89.04
77299;BME280;66361;52.034;20.656;2023-07-31T21:54:11;99077.66;;;16.77;88.87
77299;BME280;66361;52.034;20.656;2023-07-31T21:58:14;99076.28;;;16.65;91.44
77299;BME280;66361;52.034;20.656;2023-07-31T22:02:20;99074.56;;;16.56;89.65
77299;BME280;66361;52.034;20.656;2023-07-31T22:06:26;99087.41;;;16.61;90.54
77299;BME280;66361;52.034;20.656;2023-07-31T22:10:29;99081.28;;;16.68;92.79
77299;BME280;66361;52.034;20.656;2023-07-31T22:14:32;99081.31;;;16.76;90.65
77299;BME280;66361;52.034;20.656;2023-07-31T22:18:35;99072.69;;;16.90;89.49
77299;BME280;66361;52.034;20.656;2023-07-31T22:22:42;99075.56;;;17.05;91.20
77299;BME280;66361;52.034;20.656;2023-07-31T22:26:46;99072.09;;;17.21;87.91
77299;BME280;66361;52.034;20.656;2023-07-31T22:30:48;99068.78;;;17.35;85.91
77299;BME280;66361;52.034;20.656;2023-07-31T22:34:53;99068.16;;;17.49;85.62
77299;BME280;66361;52.034;20.656;2023-07-31T22:38:57;99069.84;;;17.66;82.58
77299;BME280;66361;52.034;20.656;2023-07-31T22:43:01;99068.31;;;17.80;82.57
77299;BME280;66361;52.034;20.656;2023-07-31T22:47:04;99072.66;;;17.89;80.61
77299;BME280;66361;52.034;20.656;2023-07-31T22:51:07;99069.63;;;17.92;81.67
77299;BME280;66361;52.034;20.656;2023-07-31T22:55:12;99073.00;;;17.94;83.72
77299;BME280;66361;52.034;20.656;2023-07-31T22:59:15;99061.31;;;17.87;84.03
77299;BME280;66361;52.034;20.656;2023-07-31T23:03:18;99065.47;;;17.89;81.35
77299;BME280;66361;52.034;20.656;2023-07-31T23:07:21;99060.63;;;17.93;80.74
77299;BME280;66361;52.034;20.656;2023-07-31T23:11:27;99058.63;;;17.95;80.27
77299;BME280;66361;52.034;20.656;2023-07-31T23:15:30;99053.81;;;17.90;81.33
77299;BME280;66361;52.034;20.656;2023-07-31T23:19:32;99048.63;;;17.89;80.32
77299;BME280;66361;52.034;20.656;2023-07-31T23:23:35;99055.47;;;17.83;82.42
77299;BME280;66361;52.034;20.656;2023-07-31T23:27:39;99044.47;;;17.78;82.58
